sensor_id;sensor_type;location;lat;lon;timestamp;pressure;altitude;pressure_sealevel;temperature;humidity
13476;BME280;6810;63.824;20.288;2023-05-25T05:01:01;101267.50;;;10.16;63.64
13476;BME280;6810;63.824;20.288;2023-05-25T05:03:29;101222.56;;;9.90;63.75
13476;BME280;6810;63.824;20.288;2023-05-25T05:05:56;101266.56;;;10.17;63.92
13476;BME280;6810;63.824;20.288;2023-05-25T05:08:27;101247.84;;;10.18;63.09
13476;BME280;6810;63.824;20.288;2023-05-25T05:10:54;101260.38;;;10.16;62.02
13476;BME280;6810;63.824;20.288;2023-05-25T05:13:22;101258.56;;;10.17;62.79
13476;BME280;6810;63.824;20.288;2023-05-25T05:15:50;101254.88;;;10.19;62.69
13476;BME280;6810;63.824;20.288;2023-05-25T05:18:17;101256.47;;;10.23;62.15
13476;BME280;6810;63.824;20.288;2023-05-25T05:20:44;101250.28;;;10.23;60.89
13476;BME280;6810;63.824;20.288;2023-05-25T05:23:12;101260.88;;;10.24;61.19
13476;BME280;6810;63.824;20.288;2023-05-25T05:25:39;101257.31;;;10.24;60.66
13476;BME280;6810;63.824;20.288;2023-05-25T05:28:06;101262.66;;;10.24;60.90
13476;BME280;6810;63.824;20.288;2023-05-25T05:30:39;101254.59;;;10.25;60.17
13476;BME280;6810;63.824;20.288;2023-05-25T05:33:06;101227.78;;;10.11;60.13
13476;BME280;6810;63.824;20.288;2023-05-25T05:35:42;101260.56;;;10.30;60.43
13476;BME280;6810;63.824;20.288;2023-05-25T05:38:14;101252.56;;;10.30;59.92
13476;BME280;6810;63.824;20.288;2023-05-25T05:40:41;101263.88;;;10.35;59.20
13476;BME280;6810;63.824;20.288;2023-05-25T05:43:13;101258.56;;;10.35;59.68
13476;BME280;6810;63.824;20.288;2023-05-25T05:45:40;101252.19;;;10.38;59.10
13476;BME280;6810;63.824;20.288;2023-05-25T05:48:07;101254.03;;;10.37;58.93
13476;BME280;6810;63.824;20.288;2023-05-25T05:50:38;101259.19;;;10.40;58.62
13476;BME280;6810;63.824;20.288;2023-05-25T05:53:09;101255.50;;;10.43;58.72
13476;BME280;6810;63.824;20.288;2023-05-25T05:55:36;101263.34;;;10.46;57.92
13476;BME280;6810;63.824;20.288;2023-05-25T05:58:04;101255.13;;;10.50;58.85
13476;BME280;6810;63.824;20.288;2023-05-25T06:00:31;101261.19;;;10.54;58.34
13476;BME280;6810;63.824;20.288;2023-05-25T06:03:19;101244.97;;;10.59;58.06
13476;BME280;6810;63.824;20.288;2023-05-25T06:06:06;101265.09;;;10.64;58.70
13476;BME280;6810;63.824;20.288;2023-05-25T06:08:54;101254.28;;;10.67;57.81
13476;BME280;6810;63.824;20.288;2023-05-25T06:11:42;101240.13;;;10.67;57.55
13476;BME280;6810;63.824;20.288;2023-05-25T06:14:29;101236.56;;;10.66;57.76
13476;BME280;6810;63.824;20.288;2023-05-25T06:17:19;101261.66;;;10.79;58.16
13476;BME280;6810;63.824;20.288;2023-05-25T06:20:09;101264.09;;;10.84;57.58
13476;BME280;6810;63.824;20.288;2023-05-25T06:22:56;101244.91;;;10.77;58.03
13476;BME280;6810;63.824;20.288;2023-05-25T06:25:44;101263.66;;;10.93;57.68
13476;BME280;6810;63.824;20.288;2023-05-25T06:28:31;101267.88;;;10.97;56.78
13476;BME280;6810;63.824;20.288;2023-05-25T06:31:18;101261.44;;;11.01;56.80
13476;BME280;6810;63.824;20.288;2023-05-25T06:34:06;101253.34;;;11.02;56.28
13476;BME280;6810;63.824;20.288;2023-05-25T06:36:53;101255.19;;;11.02;56.62
13476;BME280;6810;63.824;20.288;2023-05-25T06:39:40;101275.19;;;11.10;56.89
13476;BME280;6810;63.824;20.288;2023-05-25T06:42:28;101281.38;;;11.11;56.21
13476;BME280;6810;63.824;20.288;2023-05-25T06:45:36;101287.25;;;11.17;55.89
13476;BME280;6810;63.824;20.288;2023-05-25T06:48:24;101290.63;;;11.21;56.63
13476;BME280;6810;63.824;20.288;2023-05-25T06:51:11;101279.97;;;11.21;56.25
13476;BME280;6810;63.824;20.288;2023-05-25T06:53:58;101284.22;;;11.25;56.00
13476;BME280;6810;63.824;20.288;2023-05-25T06:56:45;101294.72;;;11.28;55.94
13476;BME280;6810;63.824;20.288;2023-05-25T06:59:32;101279.47;;;11.30;56.05
13476;BME280;6810;63.824;20.288;2023-05-25T07:02:20;101272.41;;;11.29;55.13
13476;BME280;6810;63.824;20.288;2023-05-25T07:05:07;101283.56;;;11.37;54.62
13476;BME280;6810;63.824;20.288;2023-05-25T07:07:55;101281.56;;;11.40;54.93
13476;BME280;6810;63.824;20.288;2023-05-25T07:10:42;101279.53;;;11.45;54.54
13476;BME280;6810;63.824;20.288;2023-05-25T07:13:29;101292.56;;;11.51;54.74
13476;BME280;6810;63.824;20.288;2023-05-25T07:16:16;101269.25;;;11.55;55.16
13476;BME280;6810;63.824;20.288;2023-05-25T07:19:03;101268.91;;;11.61;54.80
13476;BME280;6810;63.824;20.288;2023-05-25T07:21:50;101257.84;;;11.68;54.98
13476;BME280;6810;63.824;20.288;2023-05-25T07:24:37;101256.63;;;11.74;54.78
13476;BME280;6810;63.824;20.288;2023-05-25T07:27:25;101263.56;;;11.78;54.53
13476;BME280;6810;63.824;20.288;2023-05-25T07:30:12;101264.22;;;11.81;53.61
13476;BME280;6810;63.824;20.288;2023-05-25T07:32:59;101267.59;;;11.85;53.08
13476;BME280;6810;63.824;20.288;2023-05-25T07:35:47;101260.31;;;11.88;54.03
13476;BME280;6810;63.824;20.288;2023-05-25T07:38:34;101273.41;;;11.93;54.07
13476;BME280;6810;63.824;20.288;2023-05-25T07:41:21;101256.13;;;11.83;52.92
13476;BME280;6810;63.824;20.288;2023-05-25T07:44:08;101282.78;;;12.00;52.94
13476;BME280;6810;63.824;20.288;2023-05-25T07:46:55;101281.69;;;12.04;52.23
13476;BME280;6810;63.824;20.288;2023-05-25T07:49:42;101290.28;;;12.09;53.15
13476;BME280;6810;63.824;20.288;2023-05-25T07:52:29;101282.09;;;12.12;52.52
13476;BME280;6810;63.824;20.288;2023-05-25T07:55:18;101264.72;;;12.05;52.82
13476;BME280;6810;63.824;20.288;2023-05-25T07:58:06;101282.38;;;12.23;52.11
13476;BME280;6810;63.824;20.288;2023-05-25T08:00:54;101309.63;;;12.30;51.59
13476;BME280;6810;63.824;20.288;2023-05-25T08:03:41;101297.81;;;12.34;50.49
13476;BME280;6810;63.824;20.288;2023-05-25T08:06:28;101280.06;;;12.33;51.42
13476;BME280;6810;63.824;20.288;2023-05-25T08:09:15;101277.81;;;12.41;50.52
13476;BME280;6810;63.824;20.288;2023-05-25T08:12:03;101290.16;;;12.43;49.97
13476;BME280;6810;63.824;20.288;2023-05-25T08:15:08;101277.22;;;12.51;50.96
13476;BME280;6810;63.824;20.288;2023-05-25T08:17:55;101291.09;;;12.58;51.13
13476;BME280;6810;63.824;20.288;2023-05-25T08:20:43;101270.97;;;12.51;50.03
13476;BME280;6810;63.824;20.288;2023-05-25T08:23:29;101289.09;;;12.61;49.17
13476;BME280;6810;63.824;20.288;2023-05-25T08:26:17;101273.13;;;12.60;49.90
13476;BME280;6810;63.824;20.288;2023-05-25T08:29:19;101279.69;;;12.70;49.26
13476;BME280;6810;63.824;20.288;2023-05-25T08:32:07;101284.78;;;12.74;49.89
13476;BME280;6810;63.824;20.288;2023-05-25T08:34:54;101278.19;;;12.80;48.73
13476;BME280;6810;63.824;20.288;2023-05-25T08:37:42;101276.97;;;12.85;49.47
13476;BME280;6810;63.824;20.288;2023-05-25T08:40:29;101282.06;;;12.90;49.34
13476;BME280;6810;63.824;20.288;2023-05-25T08:43:17;101291.53;;;12.95;48.76
13476;BME280;6810;63.824;20.288;2023-05-25T08:46:05;101295.75;;;12.99;48.63
13476;BME280;6810;63.824;20.288;2023-05-25T08:48:59;101292.91;;;13.02;48.95
13476;BME280;6810;63.824;20.288;2023-05-25T08:51:50;101279.94;;;13.10;48.35
13476;BME280;6810;63.824;20.288;2023-05-25T08:54:38;101300.06;;;13.17;47.95
13476;BME280;6810;63.824;20.288;2023-05-25T09:00:49;101288.81;;;13.26;48.01
13476;BME280;6810;63.824;20.288;2023-05-25T09:03:38;101285.66;;;13.34;47.51
13476;BME280;6810;63.824;20.288;2023-05-25T09:06:26;101266.50;;;13.26;46.69
13476;BME280;6810;63.824;20.288;2023-05-25T09:09:32;101296.31;;;13.49;47.13
13476;BME280;6810;63.824;20.288;2023-05-25T09:12:21;101300.41;;;13.55;46.42
13476;BME280;6810;63.824;20.288;2023-05-25T09:15:11;101286.94;;;13.56;46.03
13476;BME280;6810;63.824;20.288;2023-05-25T09:17:59;101298.13;;;13.63;46.05
13476;BME280;6810;63.824;20.288;2023-05-25T09:20:46;101302.34;;;13.67;46.62
13476;BME280;6810;63.824;20.288;2023-05-25T09:23:34;101265.69;;;13.53;45.80
13476;BME280;6810;63.824;20.288;2023-05-25T09:26:23;101290.94;;;13.77;45.40
13476;BME280;6810;63.824;20.288;2023-05-25T09:29:13;101290.66;;;13.82;45.48
13476;BME280;6810;63.824;20.288;2023-05-25T09:32:03;101292.50;;;13.81;45.36
13476;BME280;6810;63.824;20.288;2023-05-25T09:34:51;101294.69;;;13.89;44.83
13476;BME280;6810;63.824;20.288;2023-05-25T09:37:40;101283.78;;;13.92;43.89
13476;BME280;6810;63.824;20.288;2023-05-25T09:40:29;101284.53;;;13.94;44.23
13476;BME280;6810;63.824;20.288;2023-05-25T09:43:16;101284.03;;;14.02;44.02
13476;BME280;6810;63.824;20.288;2023-05-25T09:46:08;101268.44;;;13.94;44.47
13476;BME280;6810;63.824;20.288;2023-05-25T09:48:59;101291.50;;;14.25;43.33
13476;BME280;6810;63.824;20.288;2023-05-25T09:51:46;101291.69;;;14.36;42.45
13476;BME280;6810;63.824;20.288;2023-05-25T09:54:34;101285.81;;;14.43;42.56
13476;BME280;6810;63.824;20.288;2023-05-25T09:57:22;101273.34;;;14.56;42.53
13476;BME280;6810;63.824;20.288;2023-05-25T10:00:10;101269.75;;;14.70;43.26
13476;BME280;6810;63.824;20.288;2023-05-25T10:02:58;101270.13;;;14.90;42.37
13476;BME280;6810;63.824;20.288;2023-05-25T10:05:47;101232.53;;;14.90;42.88
13476;BME280;6810;63.824;20.288;2023-05-25T10:08:34;101275.59;;;15.28;42.06
13476;BME280;6810;63.824;20.288;2023-05-25T10:11:23;101265.38;;;15.33;40.46
13476;BME280;6810;63.824;20.288;2023-05-25T10:14:13;101272.41;;;15.48;40.77
13476;BME280;6810;63.824;20.288;2023-05-25T10:17:03;101273.59;;;15.56;40.63
13476;BME280;6810;63.824;20.288;2023-05-25T10:19:57;101296.25;;;15.65;40.05
13476;BME280;6810;63.824;20.288;2023-05-25T10:22:59;101275.41;;;15.69;39.52
13476;BME280;6810;63.824;20.288;2023-05-25T10:25:47;101278.97;;;15.82;39.63
13476;BME280;6810;63.824;20.288;2023-05-25T10:28:39;101290.66;;;15.93;38.08
13476;BME280;6810;63.824;20.288;2023-05-25T10:31:30;101282.16;;;15.99;37.97
13476;BME280;6810;63.824;20.288;2023-05-25T10:34:18;101289.13;;;16.02;37.00
13476;BME280;6810;63.824;20.288;2023-05-25T10:37:06;101295.06;;;16.07;37.08
13476;BME280;6810;63.824;20.288;2023-05-25T10:39:56;101269.69;;;15.98;37.34
13476;BME280;6810;63.824;20.288;2023-05-25T10:42:44;101301.63;;;16.15;36.61
13476;BME280;6810;63.824;20.288;2023-05-25T10:45:31;101301.19;;;16.21;37.21
13476;BME280;6810;63.824;20.288;2023-05-25T10:48:21;101289.25;;;16.13;37.42
13476;BME280;6810;63.824;20.288;2023-05-25T10:51:08;101283.84;;;16.13;37.58
13476;BME280;6810;63.824;20.288;2023-05-25T10:53:59;101314.44;;;16.12;37.44
13476;BME280;6810;63.824;20.288;2023-05-25T10:57:12;101295.72;;;16.10;38.11
13476;BME280;6810;63.824;20.288;2023-05-25T11:00:05;101299.66;;;16.17;37.61
13476;BME280;6810;63.824;20.288;2023-05-25T11:02:53;101314.53;;;16.23;37.40
13476;BME280;6810;63.824;20.288;2023-05-25T11:05:40;101306.13;;;16.27;37.87
13476;BME280;6810;63.824;20.288;2023-05-25T11:14:34;101309.97;;;16.48;36.56
13476;BME280;6810;63.824;20.288;2023-05-25T11:17:21;101302.19;;;16.56;37.08
13476;BME280;6810;63.824;20.288;2023-05-25T11:20:19;101313.69;;;16.58;36.98
13476;BME280;6810;63.824;20.288;2023-05-25T11:23:22;101309.06;;;16.60;37.13
13476;BME280;6810;63.824;20.288;2023-05-25T11:26:19;101299.28;;;16.59;37.00
13476;BME280;6810;63.824;20.288;2023-05-25T11:29:14;101324.19;;;16.74;36.97
13476;BME280;6810;63.824;20.288;2023-05-25T11:32:01;101315.66;;;16.80;36.46
13476;BME280;6810;63.824;20.288;2023-05-25T11:34:52;101323.03;;;16.89;36.95
13476;BME280;6810;63.824;20.288;2023-05-25T11:37:41;101332.28;;;16.97;36.64
13476;BME280;6810;63.824;20.288;2023-05-25T11:40:28;101331.31;;;16.98;36.61
13476;BME280;6810;63.824;20.288;2023-05-25T11:43:16;101325.03;;;16.98;36.62
13476;BME280;6810;63.824;20.288;2023-05-25T11:46:08;101288.38;;;16.84;36.19
13476;BME280;6810;63.824;20.288;2023-05-25T11:48:55;101333.19;;;17.09;36.01
13476;BME280;6810;63.824;20.288;2023-05-25T11:51:43;101336.41;;;17.14;36.80
13476;BME280;6810;63.824;20.288;2023-05-25T11:54:30;101340.69;;;17.16;36.73
13476;BME280;6810;63.824;20.288;2023-05-25T11:57:21;101334.22;;;17.19;36.39
13476;BME280;6810;63.824;20.288;2023-05-25T12:00:09;101326.03;;;17.20;36.42
13476;BME280;6810;63.824;20.288;2023-05-25T12:02:56;101323.91;;;17.13;36.03
13476;BME280;6810;63.824;20.288;2023-05-25T12:05:44;101335.75;;;17.10;35.94
13476;BME280;6810;63.824;20.288;2023-05-25T12:08:32;101326.91;;;16.97;36.24
13476;BME280;6810;63.824;20.288;2023-05-25T12:11:28;101325.44;;;17.04;35.73
13476;BME280;6810;63.824;20.288;2023-05-25T12:14:16;101276.66;;;16.85;35.00
13476;BME280;6810;63.824;20.288;2023-05-25T12:17:04;101320.22;;;17.14;35.43
13476;BME280;6810;63.824;20.288;2023-05-25T12:19:52;101316.72;;;17.24;34.25
13476;BME280;6810;63.824;20.288;2023-05-25T12:22:40;101333.41;;;17.29;33.49
13476;BME280;6810;63.824;20.288;2023-05-25T12:25:28;101326.03;;;17.31;33.93
13476;BME280;6810;63.824;20.288;2023-05-25T12:28:17;101335.94;;;17.44;33.05
13476;BME280;6810;63.824;20.288;2023-05-25T12:31:33;101360.34;;;17.53;33.43
13476;BME280;6810;63.824;20.288;2023-05-25T12:34:26;101331.31;;;17.57;32.73
13476;BME280;6810;63.824;20.288;2023-05-25T12:37:20;101329.13;;;17.62;33.03
13476;BME280;6810;63.824;20.288;2023-05-25T12:40:20;101325.47;;;17.74;33.04
13476;BME280;6810;63.824;20.288;2023-05-25T12:43:09;101314.69;;;17.74;33.16
13476;BME280;6810;63.824;20.288;2023-05-25T12:45:56;101335.91;;;17.78;32.73
13476;BME280;6810;63.824;20.288;2023-05-25T12:48:43;101340.06;;;17.82;31.68
13476;BME280;6810;63.824;20.288;2023-05-25T12:51:37;101344.22;;;17.75;32.29
13476;BME280;6810;63.824;20.288;2023-05-25T12:54:52;101327.19;;;17.75;31.78
13476;BME280;6810;63.824;20.288;2023-05-25T12:57:39;101306.88;;;17.47;31.34
13476;BME280;6810;63.824;20.288;2023-05-25T13:00:30;101317.06;;;17.44;30.93
13476;BME280;6810;63.824;20.288;2023-05-25T13:03:18;101345.75;;;17.45;31.29
13476;BME280;6810;63.824;20.288;2023-05-25T13:06:05;101345.03;;;17.30;31.09
13476;BME280;6810;63.824;20.288;2023-05-25T13:08:52;101327.69;;;17.10;31.76
13476;BME280;6810;63.824;20.288;2023-05-25T13:11:39;101344.06;;;17.07;31.79
13476;BME280;6810;63.824;20.288;2023-05-25T13:14:27;101336.56;;;17.00;31.72
13476;BME280;6810;63.824;20.288;2023-05-25T13:17:15;101340.94;;;16.90;31.43
13476;BME280;6810;63.824;20.288;2023-05-25T13:20:02;101343.56;;;16.79;32.03
13476;BME280;6810;63.824;20.288;2023-05-25T13:22:51;101333.06;;;16.63;31.83
13476;BME280;6810;63.824;20.288;2023-05-25T13:25:38;101337.41;;;16.53;31.92
13476;BME280;6810;63.824;20.288;2023-05-25T13:28:25;101352.91;;;16.50;32.84
13476;BME280;6810;63.824;20.288;2023-05-25T13:31:13;101341.38;;;16.48;32.52
13476;BME280;6810;63.824;20.288;2023-05-25T13:34:00;101293.34;;;16.18;32.82
13476;BME280;6810;63.824;20.288;2023-05-25T13:36:47;101336.53;;;16.40;32.68
13476;BME280;6810;63.824;20.288;2023-05-25T13:39:34;101341.19;;;16.38;32.84
13476;BME280;6810;63.824;20.288;2023-05-25T13:42:21;101330.44;;;16.26;32.61
13476;BME280;6810;63.824;20.288;2023-05-25T13:45:08;101334.19;;;16.23;33.51
13476;BME280;6810;63.824;20.288;2023-05-25T13:47:56;101334.00;;;16.14;33.37
13476;BME280;6810;63.824;20.288;2023-05-25T13:50:43;101353.50;;;16.05;33.45
13476;BME280;6810;63.824;20.288;2023-05-25T13:53:31;101373.06;;;16.07;33.58
13476;BME280;6810;63.824;20.288;2023-05-25T13:56:18;101336.16;;;15.96;33.20
13476;BME280;6810;63.824;20.288;2023-05-25T13:59:05;101331.88;;;15.94;34.02
13476;BME280;6810;63.824;20.288;2023-05-25T14:01:53;101358.00;;;16.04;34.18
13476;BME280;6810;63.824;20.288;2023-05-25T14:04:40;101357.13;;;16.04;33.87
13476;BME280;6810;63.824;20.288;2023-05-25T14:07:27;101359.28;;;15.99;34.22
13476;BME280;6810;63.824;20.288;2023-05-25T14:10:15;101346.38;;;15.91;34.23
13476;BME280;6810;63.824;20.288;2023-05-25T14:13:02;101338.75;;;15.85;34.54
13476;BME280;6810;63.824;20.288;2023-05-25T14:15:49;101352.94;;;15.87;34.85
13476;BME280;6810;63.824;20.288;2023-05-25T14:18:36;101357.66;;;15.84;34.81
13476;BME280;6810;63.824;20.288;2023-05-25T14:21:23;101380.16;;;15.83;34.59
13476;BME280;6810;63.824;20.288;2023-05-25T14:24:11;101359.75;;;15.80;34.87
13476;BME280;6810;63.824;20.288;2023-05-25T14:26:58;101360.06;;;15.76;34.68
13476;BME280;6810;63.824;20.288;2023-05-25T14:29:47;101363.69;;;15.75;35.00
13476;BME280;6810;63.824;20.288;2023-05-25T14:32:34;101334.31;;;15.59;34.77
13476;BME280;6810;63.824;20.288;2023-05-25T14:35:22;101367.69;;;15.69;35.05
13476;BME280;6810;63.824;20.288;2023-05-25T14:38:09;101337.88;;;15.59;35.28
13476;BME280;6810;63.824;20.288;2023-05-25T14:40:57;101361.53;;;15.67;34.99
13476;BME280;6810;63.824;20.288;2023-05-25T14:43:44;101349.41;;;15.62;35.35
13476;BME280;6810;63.824;20.288;2023-05-25T14:46:34;101350.03;;;15.65;35.47
13476;BME280;6810;63.824;20.288;2023-05-25T14:49:22;101348.53;;;15.61;35.54
13476;BME280;6810;63.824;20.288;2023-05-25T14:52:09;101348.00;;;15.69;35.88
13476;BME280;6810;63.824;20.288;2023-05-25T14:54:56;101355.72;;;15.73;35.89
13476;BME280;6810;63.824;20.288;2023-05-25T14:57:43;101357.16;;;15.79;35.50
13476;BME280;6810;63.824;20.288;2023-05-25T15:00:31;101348.66;;;15.72;35.66
13476;BME280;6810;63.824;20.288;2023-05-25T15:03:18;101366.47;;;15.73;35.68
13476;BME280;6810;63.824;20.288;2023-05-25T15:06:06;101367.78;;;15.68;36.07
13476;BME280;6810;63.824;20.288;2023-05-25T15:08:53;101347.44;;;15.51;36.02
13476;BME280;6810;63.824;20.288;2023-05-25T15:11:41;101365.19;;;15.53;36.23
13476;BME280;6810;63.824;20.288;2023-05-25T15:14:28;101414.53;;;15.52;36.42
13476;BME280;6810;63.824;20.288;2023-05-25T15:17:15;101424.47;;;15.38;37.11
13476;BME280;6810;63.824;20.288;2023-05-25T15:20:02;101408.75;;;15.18;38.38
13476;BME280;6810;63.824;20.288;2023-05-25T15:22:50;101410.25;;;15.09;39.90
13476;BME280;6810;63.824;20.288;2023-05-25T15:25:37;101402.81;;;15.00;39.99
13476;BME280;6810;63.824;20.288;2023-05-25T15:28:24;101387.19;;;14.93;40.92
13476;BME280;6810;63.824;20.288;2023-05-25T15:31:11;101394.47;;;14.91;40.80
13476;BME280;6810;63.824;20.288;2023-05-25T15:33:58;101386.31;;;14.92;40.64
13476;BME280;6810;63.824;20.288;2023-05-25T15:36:45;101356.84;;;14.78;41.12
13476;BME280;6810;63.824;20.288;2023-05-25T15:39:32;101380.72;;;15.09;41.28
13476;BME280;6810;63.824;20.288;2023-05-25T15:42:19;101370.56;;;15.27;40.70
13476;BME280;6810;63.824;20.288;2023-05-25T15:45:10;101375.06;;;15.53;40.22
13476;BME280;6810;63.824;20.288;2023-05-25T15:47:57;101363.94;;;15.97;40.41
13476;BME280;6810;63.824;20.288;2023-05-25T15:50:44;101367.03;;;16.53;39.61
13476;BME280;6810;63.824;20.288;2023-05-25T15:53:31;101346.47;;;16.76;38.68
13476;BME280;6810;63.824;20.288;2023-05-25T15:56:18;101363.09;;;16.93;38.22
13476;BME280;6810;63.824;20.288;2023-05-25T15:59:05;101355.31;;;17.01;37.60
13476;BME280;6810;63.824;20.288;2023-05-25T16:01:53;101361.63;;;17.13;37.68
13476;BME280;6810;63.824;20.288;2023-05-25T16:04:40;101341.38;;;17.31;37.44
13476;BME280;6810;63.824;20.288;2023-05-25T16:07:27;101295.50;;;17.44;36.29
13476;BME280;6810;63.824;20.288;2023-05-25T16:10:14;101361.94;;;18.01;35.16
13476;BME280;6810;63.824;20.288;2023-05-25T16:13:02;101354.31;;;18.28;35.23
13476;BME280;6810;63.824;20.288;2023-05-25T16:15:49;101348.84;;;18.52;34.11
13476;BME280;6810;63.824;20.288;2023-05-25T16:18:36;101357.16;;;18.60;33.08
13476;BME280;6810;63.824;20.288;2023-05-25T16:21:23;101350.53;;;18.42;33.69
13476;BME280;6810;63.824;20.288;2023-05-25T16:24:10;101357.28;;;18.25;33.03
13476;BME280;6810;63.824;20.288;2023-05-25T16:26:58;101359.09;;;18.03;33.67
13476;BME280;6810;63.824;20.288;2023-05-25T16:29:45;101356.00;;;17.85;33.98
13476;BME280;6810;63.824;20.288;2023-05-25T16:32:32;101353.66;;;17.70;33.12
13476;BME280;6810;63.824;20.288;2023-05-25T16:35:20;101355.38;;;17.36;33.64
13476;BME280;6810;63.824;20.288;2023-05-25T16:38:07;101353.25;;;17.05;34.45
13476;BME280;6810;63.824;20.288;2023-05-25T16:40:54;101359.38;;;16.83;34.44
13476;BME280;6810;63.824;20.288;2023-05-25T16:43:41;101347.63;;;16.61;34.84
13476;BME280;6810;63.824;20.288;2023-05-25T16:46:28;101365.00;;;16.44;34.80
13476;BME280;6810;63.824;20.288;2023-05-25T16:49:15;101366.41;;;16.12;35.54
13476;BME280;6810;63.824;20.288;2023-05-25T16:52:02;101353.72;;;15.89;35.99
13476;BME280;6810;63.824;20.288;2023-05-25T16:54:50;101362.84;;;15.74;36.44
13476;BME280;6810;63.824;20.288;2023-05-25T16:57:37;101368.03;;;15.77;37.22
13476;BME280;6810;63.824;20.288;2023-05-25T17:00:24;101318.84;;;15.50;38.31
13476;BME280;6810;63.824;20.288;2023-05-25T17:03:12;101378.22;;;15.85;38.69
13476;BME280;6810;63.824;20.288;2023-05-25T17:05:59;101373.69;;;15.85;39.00
13476;BME280;6810;63.824;20.288;2023-05-25T17:08:46;101350.91;;;15.66;38.74
13476;BME280;6810;63.824;20.288;2023-05-25T17:11:33;101376.94;;;15.90;38.24
13476;BME280;6810;63.824;20.288;2023-05-25T17:14:20;101381.34;;;15.91;37.78
13476;BME280;6810;63.824;20.288;2023-05-25T17:17:08;101367.06;;;15.91;38.55
13476;BME280;6810;63.824;20.288;2023-05-25T17:19:55;101364.03;;;15.95;38.09
13476;BME280;6810;63.824;20.288;2023-05-25T17:22:42;101359.94;;;16.02;38.05
13476;BME280;6810;63.824;20.288;2023-05-25T17:25:29;101362.41;;;16.05;38.30
13476;BME280;6810;63.824;20.288;2023-05-25T17:28:16;101369.19;;;16.11;37.73
13476;BME280;6810;63.824;20.288;2023-05-25T17:31:04;101379.19;;;16.09;37.36
13476;BME280;6810;63.824;20.288;2023-05-25T17:33:51;101378.66;;;15.91;37.22
13476;BME280;6810;63.824;20.288;2023-05-25T17:36:38;101348.09;;;15.67;37.46
13476;BME280;6810;63.824;20.288;2023-05-25T17:39:25;101357.66;;;15.84;37.29
13476;BME280;6810;63.824;20.288;2023-05-25T17:42:12;101364.56;;;15.88;37.39
13476;BME280;6810;63.824;20.288;2023-05-25T17:44:59;101369.53;;;15.94;37.41
13476;BME280;6810;63.824;20.288;2023-05-25T17:47:47;101363.28;;;15.93;37.19
13476;BME280;6810;63.824;20.288;2023-05-25T17:50:34;101357.47;;;15.99;37.57
13476;BME280;6810;63.824;20.288;2023-05-25T17:53:21;101366.06;;;16.04;37.35
13476;BME280;6810;63.824;20.288;2023-05-25T17:56:08;101362.63;;;16.02;37.46
13476;BME280;6810;63.824;20.288;2023-05-25T17:58:55;101355.44;;;16.03;37.52
13476;BME280;6810;63.824;20.288;2023-05-25T18:01:42;101357.78;;;15.95;37.67
13476;BME280;6810;63.824;20.288;2023-05-25T18:04:30;101355.31;;;15.79;37.19
13476;BME280;6810;63.824;20.288;2023-05-25T18:07:17;101361.75;;;15.64;37.55
13476;BME280;6810;63.824;20.288;2023-05-25T18:10:04;101365.69;;;15.46;37.22
13476;BME280;6810;63.824;20.288;2023-05-25T18:12:51;101348.44;;;15.23;37.28
13476;BME280;6810;63.824;20.288;2023-05-25T18:15:38;101373.66;;;15.21;37.32
13476;BME280;6810;63.824;20.288;2023-05-25T18:18:25;101361.59;;;15.14;37.47
13476;BME280;6810;63.824;20.288;2023-05-25T18:21:13;101360.88;;;14.98;38.03
13476;BME280;6810;63.824;20.288;2023-05-25T18:24:00;101375.31;;;14.83;37.97
13476;BME280;6810;63.824;20.288;2023-05-25T18:26:47;101370.84;;;14.69;38.55
13476;BME280;6810;63.824;20.288;2023-05-25T18:29:34;101370.78;;;14.57;38.59
13476;BME280;6810;63.824;20.288;2023-05-25T18:32:21;101375.31;;;14.42;39.08
13476;BME280;6810;63.824;20.288;2023-05-25T18:35:08;101384.97;;;14.31;39.23
13476;BME280;6810;63.824;20.288;2023-05-25T18:37:55;101376.75;;;14.20;39.71
13476;BME280;6810;63.824;20.288;2023-05-25T18:40:42;101386.41;;;14.08;39.32
13476;BME280;6810;63.824;20.288;2023-05-25T18:43:30;101381.03;;;13.94;39.64
13476;BME280;6810;63.824;20.288;2023-05-25T18:46:17;101382.56;;;13.84;40.13
13476;BME280;6810;63.824;20.288;2023-05-25T18:49:04;101369.03;;;13.71;39.70
13476;BME280;6810;63.824;20.288;2023-05-25T18:51:51;101369.69;;;13.61;41.03
13476;BME280;6810;63.824;20.288;2023-05-25T18:54:38;101360.28;;;13.40;40.67
13476;BME280;6810;63.824;20.288;2023-05-25T18:57:25;101372.69;;;13.41;41.02
13476;BME280;6810;63.824;20.288;2023-05-25T19:00:13;101362.44;;;13.33;41.47
13476;BME280;6810;63.824;20.288;2023-05-25T19:03:00;101361.84;;;13.28;41.86
13476;BME280;6810;63.824;20.288;2023-05-25T19:05:47;101341.34;;;13.13;41.83
13476;BME280;6810;63.824;20.288;2023-05-25T19:08:34;101362.47;;;13.18;42.73
13476;BME280;6810;63.824;20.288;2023-05-25T19:11:22;101343.69;;;13.04;41.98
13476;BME280;6810;63.824;20.288;2023-05-25T19:14:09;101350.09;;;13.01;42.21
13476;BME280;6810;63.824;20.288;2023-05-25T19:16:56;101349.53;;;12.95;43.00
13476;BME280;6810;63.824;20.288;2023-05-25T19:19:43;101354.50;;;12.87;42.52
13476;BME280;6810;63.824;20.288;2023-05-25T19:22:32;101348.63;;;12.80;42.67
13476;BME280;6810;63.824;20.288;2023-05-25T19:25:19;101350.00;;;12.72;43.05
13476;BME280;6810;63.824;20.288;2023-05-25T19:28:06;101351.22;;;12.66;43.73
13476;BME280;6810;63.824;20.288;2023-05-25T19:30:53;101360.72;;;12.56;43.46
13476;BME280;6810;63.824;20.288;2023-05-25T19:33:40;101346.38;;;12.42;44.24
13476;BME280;6810;63.824;20.288;2023-05-25T19:36:27;101342.75;;;12.27;44.14
13476;BME280;6810;63.824;20.288;2023-05-25T19:39:26;101344.44;;;12.12;44.93
13476;BME280;6810;63.824;20.288;2023-05-25T19:42:13;101347.53;;;12.05;45.45